createdAt,value
2022-10-28T00:00:11.118Z,1016.52
2022-10-28T00:01:11.188Z,1016.50
2022-10-28T00:02:11.195Z,1016.51
2022-10-28T00:03:11.169Z,1016.58
2022-10-28T00:04:11.183Z,1016.57
2022-10-28T00:05:11.199Z,1016.52
2022-10-28T00:06:11.222Z,1016.59
2022-10-28T00:07:11.250Z,1016.60
2022-10-28T00:08:11.247Z,1016.55
2022-10-28T00:09:12.339Z,1016.58
2022-10-28T00:10:11.280Z,1016.63
2022-10-28T00:11:11.300Z,1016.58
2022-10-28T00:12:11.311Z,1016.58
2022-10-28T00:13:11.335Z,1016.57
2022-10-28T00:14:11.346Z,1016.61
2022-10-28T00:15:11.361Z,1016.62
2022-10-28T00:16:11.377Z,1016.68
2022-10-28T00:17:11.416Z,1016.67
2022-10-28T00:18:11.411Z,1016.65
2022-10-28T00:19:11.430Z,1016.68
2022-10-28T00:20:11.460Z,1016.63
2022-10-28T00:21:11.465Z,1016.67
2022-10-28T00:22:11.477Z,1016.68
2022-10-28T00:23:11.497Z,1016.72
2022-10-28T00:24:11.511Z,1016.73
2022-10-28T00:25:11.527Z,1016.72
2022-10-28T00:26:11.541Z,1016.69
2022-10-28T00:27:11.561Z,1016.67
2022-10-28T00:28:11.574Z,1016.64
2022-10-28T00:29:11.607Z,1016.63
2022-10-28T00:30:11.608Z,1016.60
2022-10-28T00:31:11.623Z,1016.62
2022-10-28T00:32:11.647Z,1016.57
2022-10-28T00:33:11.657Z,1016.65
2022-10-28T00:34:11.677Z,1016.64
2022-10-28T00:35:11.690Z,1016.68
2022-10-28T00:36:11.712Z,1016.63
2022-10-28T00:37:11.725Z,1016.62
2022-10-28T00:38:11.740Z,1016.63
2022-10-28T00:39:11.754Z,1016.58
2022-10-28T00:40:11.775Z,1016.60
2022-10-28T00:41:11.791Z,1016.57
2022-10-28T00:42:11.807Z,1016.54
2022-10-28T00:43:11.822Z,1016.57
2022-10-28T00:44:11.838Z,1016.56
2022-10-28T00:45:11.856Z,1016.56
2022-10-28T00:46:11.873Z,1016.55
2022-10-28T00:47:11.889Z,1016.56
2022-10-28T00:48:11.905Z,1016.50
2022-10-28T00:49:11.923Z,1016.52
2022-10-28T00:50:11.940Z,1016.42
2022-10-28T00:51:11.955Z,1016.45
2022-10-28T00:52:11.973Z,1016.43
2022-10-28T00:53:11.989Z,1016.45
2022-10-28T00:54:12.007Z,1016.44
2022-10-28T00:55:12.022Z,1016.39
2022-10-28T00:56:12.107Z,1016.37
2022-10-28T00:57:12.060Z,1016.36
2022-10-28T00:58:12.074Z,1016.39
2022-10-28T00:59:12.090Z,1016.44
2022-10-28T01:00:12.107Z,1016.50
2022-10-28T01:01:12.174Z,1016.44
2022-10-28T01:02:12.233Z,1016.45
2022-10-28T01:03:12.158Z,1016.41
2022-10-28T01:04:12.173Z,1016.37
2022-10-28T01:05:12.192Z,1016.38
2022-10-28T01:06:12.206Z,1016.39
2022-10-28T01:07:12.223Z,1016.37
2022-10-28T01:08:12.240Z,1016.38
2022-10-28T01:09:12.315Z,1016.36
2022-10-28T01:10:12.277Z,1016.41
2022-10-28T01:11:12.294Z,1016.41
2022-10-28T01:12:12.308Z,1016.46
2022-10-28T01:13:12.326Z,1016.44
2022-10-28T01:14:12.344Z,1016.45
2022-10-28T01:15:12.358Z,1016.46
2022-10-28T01:16:12.380Z,1016.42
2022-10-28T01:17:12.393Z,1016.38
2022-10-28T01:18:12.411Z,1016.42
2022-10-28T01:19:12.425Z,1016.44
2022-10-28T01:20:12.444Z,1016.38
2022-10-28T01:21:12.459Z,1016.42
2022-10-28T01:22:12.478Z,1016.40
2022-10-28T01:23:12.496Z,1016.37
2022-10-28T01:24:12.514Z,1016.42
2022-10-28T01:25:12.528Z,1016.38
2022-10-28T01:26:12.545Z,1016.38
2022-10-28T01:27:12.562Z,1016.35
2022-10-28T01:28:12.578Z,1016.30
2022-10-28T01:29:12.599Z,1016.31
2022-10-28T01:30:12.615Z,1016.32
2022-10-28T01:31:12.632Z,1016.30
2022-10-28T01:32:12.649Z,1016.28
2022-10-28T01:33:12.665Z,1016.28
2022-10-28T01:34:12.682Z,1016.28
2022-10-28T01:35:12.699Z,1016.24
2022-10-28T01:36:12.714Z,1016.22
2022-10-28T01:37:12.737Z,1016.28
2022-10-28T01:38:12.752Z,1016.25
2022-10-28T01:39:12.766Z,1016.23
2022-10-28T01:40:12.787Z,1016.15
2022-10-28T01:41:12.801Z,1016.19
2022-10-28T01:42:12.819Z,1016.14
2022-10-28T01:43:12.834Z,1016.11
2022-10-28T01:44:12.851Z,1016.08
2022-10-28T01:45:12.869Z,1016.12
2022-10-28T01:46:12.887Z,1016.10
2022-10-28T01:47:12.903Z,1016.11
2022-10-28T01:48:12.921Z,1016.15
2022-10-28T01:49:12.938Z,1016.12
2022-10-28T01:50:12.953Z,1016.14
2022-10-28T01:51:12.972Z,1016.16
2022-10-28T01:52:12.987Z,1016.15
2022-10-28T01:53:13.004Z,1016.14
2022-10-28T01:54:13.020Z,1016.15
2022-10-28T01:55:13.038Z,1016.10
2022-10-28T01:56:13.057Z,1016.10
2022-10-28T01:57:13.072Z,1016.09
2022-10-28T01:58:13.088Z,1016.12
2022-10-28T01:59:13.108Z,1016.07
2022-10-28T02:00:13.123Z,1016.04
2022-10-28T02:01:13.203Z,1016.01
2022-10-28T02:02:13.159Z,1016.00
2022-10-28T02:03:13.170Z,1015.98
2022-10-28T02:04:13.190Z,1016.03
2022-10-28T02:05:13.205Z,1016.01
2022-10-28T02:06:13.221Z,1015.99
2022-10-28T02:07:13.237Z,1015.96
2022-10-28T02:08:13.254Z,1015.98
2022-10-28T02:09:13.271Z,1015.99
2022-10-28T02:10:13.289Z,1015.99
2022-10-28T02:11:13.305Z,1015.98
2022-10-28T02:12:13.320Z,1015.99
2022-10-28T02:13:13.338Z,1015.98
2022-10-28T02:14:13.362Z,1015.93
2022-10-28T02:15:13.392Z,1015.94
2022-10-28T02:16:13.387Z,1015.97
2022-10-28T02:17:13.404Z,1015.95
2022-10-28T02:18:13.433Z,1015.98
2022-10-28T02:19:13.439Z,1015.98
2022-10-28T02:20:13.455Z,1015.94
2022-10-28T02:21:13.470Z,1015.97
2022-10-28T02:22:13.488Z,1016.01
2022-10-28T02:23:13.504Z,1016.03
2022-10-28T02:24:13.520Z,1016.07
2022-10-28T02:25:13.537Z,1016.06
2022-10-28T02:26:13.553Z,1016.06
2022-10-28T02:27:13.570Z,1016.03
2022-10-28T02:28:13.590Z,1016.05
2022-10-28T02:29:13.605Z,1016.06
2022-10-28T02:30:13.620Z,1016.04
2022-10-28T02:31:13.636Z,1016.06
2022-10-28T02:32:13.651Z,1016.11
2022-10-28T02:33:13.668Z,1016.17
2022-10-28T02:34:13.685Z,1016.12
2022-10-28T02:35:13.701Z,1016.13
2022-10-28T02:36:13.716Z,1016.14
2022-10-28T02:37:13.734Z,1016.14
2022-10-28T02:38:13.757Z,1016.10
2022-10-28T02:39:13.767Z,1016.06
2022-10-28T02:40:13.783Z,1016.09
2022-10-28T02:41:13.800Z,1016.09
2022-10-28T02:42:13.820Z,1016.06
2022-10-28T02:43:13.832Z,1016.06
2022-10-28T02:44:13.851Z,1016.04
2022-10-28T02:45:13.868Z,1015.99
2022-10-28T02:46:13.882Z,1015.98
2022-10-28T02:47:13.898Z,1016.00
2022-10-28T02:48:13.914Z,1015.95
2022-10-28T02:49:13.930Z,1015.95
2022-10-28T02:50:13.949Z,1015.93
2022-10-28T02:51:13.963Z,1015.93
2022-10-28T02:52:13.980Z,1015.89
2022-10-28T02:53:14.025Z,1015.92
2022-10-28T02:54:14.016Z,1015.96
2022-10-28T02:55:14.029Z,1015.97
2022-10-28T02:56:14.044Z,1016.00
2022-10-28T02:57:14.062Z,1016.03
2022-10-28T02:58:14.077Z,1016.04
2022-10-28T02:59:14.095Z,1016.07
2022-10-28T03:00:14.111Z,1016.03
2022-10-28T03:01:14.240Z,1016.04
2022-10-28T03:02:14.218Z,1016.02
2022-10-28T03:03:14.159Z,1016.04
2022-10-28T03:04:14.174Z,1016.03
2022-10-28T03:05:14.195Z,1016.01
2022-10-28T03:06:14.265Z,1015.98
2022-10-28T03:07:14.225Z,1015.98
2022-10-28T03:08:14.240Z,1016.01
2022-10-28T03:09:14.255Z,1015.99
2022-10-28T03:10:14.279Z,1016.03
2022-10-28T03:11:14.291Z,1015.96
2022-10-28T03:12:14.307Z,1015.99
2022-10-28T03:13:14.322Z,1015.98
2022-10-28T03:14:15.422Z,1015.97
2022-10-28T03:15:14.356Z,1015.99
2022-10-28T03:16:14.372Z,1015.95
2022-10-28T03:17:14.388Z,1015.99
2022-10-28T03:18:14.401Z,1015.92
2022-10-28T03:19:14.608Z,1015.93
2022-10-28T03:20:14.450Z,1015.92
2022-10-28T03:21:14.452Z,1015.93
2022-10-28T03:22:14.468Z,1015.89
2022-10-28T03:23:14.485Z,1015.91
2022-10-28T03:24:14.501Z,1015.91
2022-10-28T03:25:14.518Z,1015.93
2022-10-28T03:26:14.533Z,1015.91
2022-10-28T03:27:14.547Z,1015.83
2022-10-28T03:28:14.564Z,1015.87
2022-10-28T03:29:14.581Z,1015.88
2022-10-28T03:30:14.604Z,1015.86
2022-10-28T03:31:14.615Z,1015.87
2022-10-28T03:32:14.713Z,1015.87
2022-10-28T03:33:14.644Z,1015.87
2022-10-28T03:34:14.661Z,1015.88
2022-10-28T03:35:14.679Z,1015.86
2022-10-28T03:36:14.693Z,1015.91
2022-10-28T03:37:14.709Z,1015.89
2022-10-28T03:38:14.727Z,1015.99
2022-10-28T03:39:14.747Z,1015.98
2022-10-28T03:40:14.756Z,1016.03
2022-10-28T03:41:14.774Z,1016.03
2022-10-28T03:42:14.790Z,1016.01
2022-10-28T03:43:14.806Z,1016.03
2022-10-28T03:44:14.821Z,1016.02
2022-10-28T03:45:14.838Z,1016.08
2022-10-28T03:46:14.856Z,1016.11
2022-10-28T03:47:14.871Z,1016.17
2022-10-28T03:48:14.888Z,1016.13
2022-10-28T03:49:14.904Z,1016.19
2022-10-28T03:50:14.918Z,1016.13
2022-10-28T03:51:14.931Z,1016.10
2022-10-28T03:52:14.950Z,1016.08
2022-10-28T03:53:14.965Z,1016.03
2022-10-28T03:54:14.981Z,1015.98
2022-10-28T03:55:14.997Z,1015.98
2022-10-28T03:56:15.013Z,1015.95
2022-10-28T03:57:15.029Z,1015.96
2022-10-28T03:58:15.045Z,1015.93
2022-10-28T03:59:17.729Z,1015.93
2022-10-28T04:00:15.075Z,1015.91
2022-10-28T04:01:15.178Z,1015.86
2022-10-28T04:02:15.188Z,1015.89
2022-10-28T04:03:15.122Z,1015.91
2022-10-28T04:04:15.139Z,1015.85
2022-10-28T04:05:15.155Z,1015.82
2022-10-28T04:06:15.170Z,1015.77
2022-10-28T04:07:15.187Z,1015.80
2022-10-28T04:08:15.202Z,1015.80
2022-10-28T04:09:15.218Z,1015.83
2022-10-28T04:10:15.236Z,1015.83
2022-10-28T04:11:15.249Z,1015.87
2022-10-28T04:12:15.267Z,1015.87
2022-10-28T04:13:15.298Z,1015.87
2022-10-28T04:14:15.300Z,1015.88
2022-10-28T04:15:15.316Z,1015.85
2022-10-28T04:16:15.329Z,1015.92
2022-10-28T04:17:15.354Z,1015.88
2022-10-28T04:18:15.366Z,1015.92
2022-10-28T04:19:15.383Z,1015.93
2022-10-28T04:20:15.392Z,1016.00
2022-10-28T04:21:15.409Z,1015.94
2022-10-28T04:22:15.423Z,1016.00
2022-10-28T04:23:15.440Z,1015.98
2022-10-28T04:24:15.454Z,1015.98
2022-10-28T04:26:15.488Z,1015.91
2022-10-28T04:27:15.501Z,1015.90
2022-10-28T04:28:15.518Z,1015.85
2022-10-28T04:29:15.534Z,1015.80
2022-10-28T04:30:15.548Z,1015.84
2022-10-28T04:31:15.565Z,1015.82
2022-10-28T04:32:15.578Z,1015.75
2022-10-28T04:33:15.595Z,1015.78
2022-10-28T04:34:15.615Z,1015.69
2022-10-28T04:35:15.627Z,1015.75
2022-10-28T04:36:15.644Z,1015.72
2022-10-28T04:37:20.386Z,1015.72
2022-10-28T04:38:15.741Z,1015.76
2022-10-28T04:39:15.690Z,1015.71
2022-10-28T04:40:15.703Z,1015.74
2022-10-28T04:41:15.721Z,1015.72
2022-10-28T04:42:15.738Z,1015.69
2022-10-28T04:43:15.750Z,1015.70
2022-10-28T04:44:15.766Z,1015.71
2022-10-28T04:45:15.782Z,1015.67
2022-10-28T04:46:15.798Z,1015.70
2022-10-28T04:47:15.814Z,1015.69
2022-10-28T04:48:15.831Z,1015.77
2022-10-28T04:49:15.846Z,1015.70
2022-10-28T04:50:15.860Z,1015.69
2022-10-28T04:51:15.878Z,1015.70
2022-10-28T04:52:16.055Z,1015.69
2022-10-28T04:53:15.910Z,1015.69
2022-10-28T04:54:15.923Z,1015.71
2022-10-28T04:55:15.937Z,1015.65
2022-10-28T04:56:15.954Z,1015.66
2022-10-28T04:57:15.974Z,1015.69
2022-10-28T04:58:15.984Z,1015.69
2022-10-28T04:59:15.998Z,1015.73
2022-10-28T05:00:16.015Z,1015.72
2022-10-28T05:01:16.140Z,1015.72
2022-10-28T05:02:16.153Z,1015.77
2022-10-28T05:03:16.062Z,1015.77
2022-10-28T05:04:16.079Z,1015.72
2022-10-28T05:06:16.115Z,1015.68
2022-10-28T05:07:17.643Z,1015.68
2022-10-28T05:08:16.138Z,1015.69
2022-10-28T05:09:16.156Z,1015.65
2022-10-28T05:10:16.168Z,1015.65
2022-10-28T05:11:16.186Z,1015.70
2022-10-28T05:12:16.200Z,1015.75
2022-10-28T05:13:16.217Z,1015.76
2022-10-28T05:14:16.231Z,1015.79
2022-10-28T05:15:16.247Z,1015.75
2022-10-28T05:16:16.262Z,1015.75
2022-10-28T05:17:16.279Z,1015.70
2022-10-28T05:18:16.300Z,1015.74
2022-10-28T05:19:16.307Z,1015.70
2022-10-28T05:20:16.324Z,1015.70
2022-10-28T05:21:16.340Z,1015.66
2022-10-28T05:22:16.355Z,1015.64
2022-10-28T05:23:16.371Z,1015.61
2022-10-28T05:24:16.386Z,1015.56
2022-10-28T05:25:16.401Z,1015.57
2022-10-28T05:26:16.421Z,1015.59
2022-10-28T05:27:16.431Z,1015.61
2022-10-28T05:28:16.447Z,1015.63
2022-10-28T05:29:16.461Z,1015.62
2022-10-28T05:30:16.476Z,1015.57
2022-10-28T05:31:16.491Z,1015.59
2022-10-28T05:32:16.509Z,1015.56
2022-10-28T05:33:16.529Z,1015.58
2022-10-28T05:34:16.538Z,1015.57
2022-10-28T05:35:16.553Z,1015.63
2022-10-28T05:36:16.570Z,1015.62
2022-10-28T05:37:16.583Z,1015.66
2022-10-28T05:38:16.599Z,1015.63
2022-10-28T05:39:16.613Z,1015.61
2022-10-28T05:40:16.630Z,1015.60
2022-10-28T05:41:16.648Z,1015.59
2022-10-28T05:42:16.660Z,1015.54
2022-10-28T05:43:16.675Z,1015.53
2022-10-28T05:44:16.688Z,1015.56
2022-10-28T05:45:16.730Z,1015.52
2022-10-28T05:46:16.720Z,1015.53
2022-10-28T05:47:16.735Z,1015.53
2022-10-28T05:48:16.749Z,1015.54
2022-10-28T05:49:16.765Z,1015.52
2022-10-28T05:50:16.780Z,1015.51
2022-10-28T05:51:16.795Z,1015.49
2022-10-28T05:52:16.808Z,1015.48
2022-10-28T05:53:16.827Z,1015.50
2022-10-28T05:54:16.843Z,1015.50
2022-10-28T05:55:16.856Z,1015.57
2022-10-28T05:56:16.876Z,1015.57
2022-10-28T05:57:16.889Z,1015.58
2022-10-28T05:58:16.903Z,1015.58
2022-10-28T05:59:16.918Z,1015.60
2022-10-28T06:00:16.937Z,1015.60
2022-10-28T06:01:17.033Z,1015.62
2022-10-28T06:02:16.964Z,1015.64
2022-10-28T06:03:17.019Z,1015.61
2022-10-28T06:04:17.076Z,1015.61
2022-10-28T06:05:17.011Z,1015.55
2022-10-28T06:06:17.028Z,1015.53
2022-10-28T06:07:17.046Z,1015.57
2022-10-28T06:08:17.056Z,1015.48
2022-10-28T06:09:17.072Z,1015.47
2022-10-28T06:10:17.088Z,1015.48
2022-10-28T06:11:15.568Z,1015.46
2022-10-28T06:12:15.584Z,1015.48
2022-10-28T06:13:15.600Z,1015.48
2022-10-28T06:14:15.620Z,1015.49
2022-10-28T06:15:15.633Z,1015.46
2022-10-28T06:16:15.651Z,1015.45
2022-10-28T06:17:15.670Z,1015.50
2022-10-28T06:18:18.167Z,1015.47
2022-10-28T06:19:15.702Z,1015.53
2022-10-28T06:20:15.719Z,1015.51
2022-10-28T06:21:15.739Z,1015.47
2022-10-28T06:22:15.763Z,1015.47
2022-10-28T06:23:15.777Z,1015.46
2022-10-28T06:24:15.785Z,1015.37
2022-10-28T06:25:15.800Z,1015.41
2022-10-28T06:26:15.817Z,1015.39
2022-10-28T06:27:15.834Z,1015.44
2022-10-28T06:28:15.850Z,1015.38
2022-10-28T06:29:15.866Z,1015.37
2022-10-28T06:30:15.883Z,1015.35
2022-10-28T06:31:15.900Z,1015.36
2022-10-28T06:32:15.917Z,1015.37
2022-10-28T06:33:15.932Z,1015.34
2022-10-28T06:34:15.949Z,1015.36
2022-10-28T06:35:15.968Z,1015.34
2022-10-28T06:36:15.983Z,1015.32
2022-10-28T06:37:16.001Z,1015.34
2022-10-28T06:38:16.019Z,1015.28
2022-10-28T06:39:16.056Z,1015.30
2022-10-28T06:40:16.049Z,1015.30
2022-10-28T06:41:16.069Z,1015.29
2022-10-28T06:42:16.085Z,1015.28
2022-10-28T06:43:16.101Z,1015.29
2022-10-28T06:44:16.118Z,1015.29
2022-10-28T06:45:16.139Z,1015.31
2022-10-28T06:46:16.151Z,1015.33
2022-10-28T06:47:17.681Z,1015.30
2022-10-28T06:48:17.700Z,1015.34
2022-10-28T06:49:17.715Z,1015.43
2022-10-28T06:50:17.731Z,1015.45
2022-10-28T06:51:17.751Z,1015.48
2022-10-28T06:52:17.762Z,1015.41
2022-10-28T06:53:17.791Z,1015.42
2022-10-28T06:54:17.799Z,1015.44
2022-10-28T06:55:17.815Z,1015.42
2022-10-28T06:56:17.831Z,1015.44
2022-10-28T06:57:17.848Z,1015.43
2022-10-28T06:58:17.864Z,1015.43
2022-10-28T06:59:17.881Z,1015.40
2022-10-28T07:00:17.940Z,1015.43
2022-10-28T07:01:18.038Z,1015.43
2022-10-28T07:02:18.028Z,1015.42
2022-10-28T07:03:17.949Z,1015.44
2022-10-28T07:04:17.965Z,1015.43
2022-10-28T07:05:17.983Z,1015.43
2022-10-28T07:06:18.005Z,1015.55
2022-10-28T07:07:18.016Z,1015.59
2022-10-28T07:08:18.035Z,1015.62
2022-10-28T07:09:18.051Z,1015.59
2022-10-28T07:10:18.066Z,1015.62
2022-10-28T07:11:18.084Z,1015.59
2022-10-28T07:13:18.119Z,1015.54
2022-10-28T07:14:18.135Z,1015.53
2022-10-28T07:15:18.150Z,1015.48
2022-10-28T07:16:18.169Z,1015.46
2022-10-28T07:17:18.184Z,1015.45
2022-10-28T07:18:18.202Z,1015.50
2022-10-28T07:19:22.407Z,1015.52
2022-10-28T07:20:18.238Z,1015.53
2022-10-28T07:21:18.261Z,1015.49
2022-10-28T07:22:20.498Z,1015.51
2022-10-28T07:23:18.287Z,1015.55
2022-10-28T07:24:18.385Z,1015.52
2022-10-28T07:25:18.323Z,1015.48
2022-10-28T07:26:18.338Z,1015.51
2022-10-28T07:27:18.358Z,1015.56
2022-10-28T07:28:18.375Z,1015.59
2022-10-28T07:29:18.390Z,1015.61
2022-10-28T07:30:18.404Z,1015.60
2022-10-28T07:31:18.426Z,1015.60
2022-10-28T07:32:18.438Z,1015.49
2022-10-28T07:33:18.457Z,1015.48
2022-10-28T07:34:19.177Z,1015.47
2022-10-28T07:35:18.488Z,1015.47
2022-10-28T07:36:18.508Z,1015.47
2022-10-28T07:37:18.525Z,1015.45
2022-10-28T07:38:18.542Z,1015.43
2022-10-28T07:39:18.559Z,1015.39
2022-10-28T07:40:18.574Z,1015.39
2022-10-28T07:41:18.592Z,1015.36
2022-10-28T07:42:18.609Z,1015.35
2022-10-28T07:43:18.625Z,1015.33
2022-10-28T07:44:18.640Z,1015.36
2022-10-28T07:45:18.658Z,1015.42
2022-10-28T07:46:18.675Z,1015.38
2022-10-28T07:47:18.692Z,1015.41
2022-10-28T07:48:18.708Z,1015.42
2022-10-28T07:49:18.836Z,1015.42
2022-10-28T07:50:18.744Z,1015.35
2022-10-28T07:51:18.758Z,1015.41
2022-10-28T07:52:18.776Z,1015.39
2022-10-28T07:53:18.809Z,1015.35
2022-10-28T07:54:18.808Z,1015.34
2022-10-28T07:55:18.828Z,1015.35
2022-10-28T07:56:18.843Z,1015.34
2022-10-28T07:57:18.858Z,1015.38
2022-10-28T07:58:18.873Z,1015.38
2022-10-28T07:59:20.996Z,1015.46
2022-10-28T08:00:18.905Z,1015.50
2022-10-28T08:01:19.010Z,1015.48
2022-10-28T08:02:18.940Z,1015.45
2022-10-28T08:03:18.955Z,1015.49
2022-10-28T08:04:18.971Z,1015.52
2022-10-28T08:05:18.989Z,1015.49
2022-10-28T08:06:19.009Z,1015.54
2022-10-28T08:07:19.017Z,1015.51
2022-10-28T08:08:19.032Z,1015.50
2022-10-28T08:09:19.047Z,1015.50
2022-10-28T08:10:19.064Z,1015.50
2022-10-28T08:11:19.088Z,1015.47
2022-10-28T08:12:19.093Z,1015.48
2022-10-28T08:13:19.110Z,1015.48
2022-10-28T08:14:19.127Z,1015.51
2022-10-28T08:15:19.152Z,1015.58
2022-10-28T08:16:19.158Z,1015.67
2022-10-28T08:17:19.176Z,1015.68
2022-10-28T08:18:19.197Z,1015.71
2022-10-28T08:19:19.220Z,1015.68
2022-10-28T08:20:19.225Z,1015.65
2022-10-28T08:21:19.241Z,1015.63
2022-10-28T08:22:19.263Z,1015.59
2022-10-28T08:23:19.278Z,1015.61
2022-10-28T08:24:19.294Z,1015.63
2022-10-28T08:25:19.315Z,1015.63
2022-10-28T08:26:19.331Z,1015.66
2022-10-28T08:27:19.350Z,1015.70
2022-10-28T08:28:19.364Z,1015.71
2022-10-28T08:29:19.385Z,1015.72
2022-10-28T08:30:19.403Z,1015.72
2022-10-28T08:31:19.420Z,1015.77
2022-10-28T08:32:19.440Z,1015.79
2022-10-28T08:33:19.460Z,1015.77
2022-10-28T08:35:19.498Z,1015.73
2022-10-28T08:36:19.516Z,1015.61
2022-10-28T08:37:19.635Z,1015.61
2022-10-28T08:38:19.554Z,1015.58
2022-10-28T08:39:19.572Z,1015.60
2022-10-28T08:40:19.592Z,1015.49
2022-10-28T08:41:19.612Z,1015.45
2022-10-28T08:42:19.630Z,1015.43
2022-10-28T08:43:30.345Z,1015.44
2022-10-28T08:44:19.670Z,1015.44
2022-10-28T08:45:19.700Z,1015.39
2022-10-28T08:46:19.711Z,1015.41
2022-10-28T08:47:19.727Z,1015.35
2022-10-28T08:48:19.748Z,1015.36
2022-10-28T08:49:19.767Z,1015.33
2022-10-28T08:50:19.904Z,1015.34
2022-10-28T08:51:19.806Z,1015.40
2022-10-28T08:52:19.826Z,1015.47
2022-10-28T08:53:19.847Z,1015.46
2022-10-28T08:54:19.869Z,1015.43
2022-10-28T08:55:19.927Z,1015.41
2022-10-28T08:56:19.907Z,1015.44
2022-10-28T08:57:19.926Z,1015.52
2022-10-28T08:58:19.943Z,1015.51
2022-10-28T08:59:19.963Z,1015.52
2022-10-28T09:00:20.127Z,1015.53
2022-10-28T09:01:20.113Z,1015.52
2022-10-28T09:02:20.024Z,1015.50
2022-10-28T09:03:20.041Z,1015.56
2022-10-28T09:04:20.061Z,1015.58
2022-10-28T09:05:20.082Z,1015.56
2022-10-28T09:06:20.100Z,1015.56
2022-10-28T09:07:20.118Z,1015.57
2022-10-28T09:08:20.137Z,1015.58
2022-10-28T09:09:20.159Z,1015.54
2022-10-28T09:10:20.241Z,1015.55
2022-10-28T09:11:24.712Z,1015.53
2022-10-28T09:12:20.218Z,1015.50
2022-10-28T09:13:20.236Z,1015.47
2022-10-28T09:14:20.258Z,1015.43
2022-10-28T09:15:20.283Z,1015.43
2022-10-28T09:16:20.300Z,1015.36
2022-10-28T09:17:20.329Z,1015.38
2022-10-28T09:18:20.333Z,1015.40
2022-10-28T09:19:20.362Z,1015.38
2022-10-28T09:20:20.577Z,1015.36
2022-10-28T09:21:20.396Z,1015.35
2022-10-28T09:22:21.104Z,1015.35
2022-10-28T09:23:20.435Z,1015.35
2022-10-28T09:24:20.460Z,1015.37
2022-10-28T09:25:20.474Z,1015.31
2022-10-28T09:26:20.492Z,1015.33
2022-10-28T09:27:20.513Z,1015.30
2022-10-28T09:28:20.530Z,1015.33
2022-10-28T09:29:20.551Z,1015.33
2022-10-28T09:30:20.573Z,1015.31
2022-10-28T09:31:20.589Z,1015.31
2022-10-28T09:32:20.610Z,1015.40
2022-10-28T09:33:20.630Z,1015.41
2022-10-28T09:34:20.649Z,1015.37
2022-10-28T09:35:20.675Z,1015.34
2022-10-28T09:36:20.695Z,1015.33
2022-10-28T09:37:20.711Z,1015.35
2022-10-28T09:38:20.731Z,1015.27
2022-10-28T09:39:25.271Z,1015.30
2022-10-28T09:40:20.772Z,1015.27
2022-10-28T09:41:20.791Z,1015.25
2022-10-28T09:42:20.811Z,1015.23
2022-10-28T09:43:20.831Z,1015.27
2022-10-28T09:44:20.851Z,1015.24
2022-10-28T09:45:20.875Z,1015.28
2022-10-28T09:46:20.893Z,1015.31
2022-10-28T09:47:20.915Z,1015.31
2022-10-28T09:48:20.936Z,1015.26
2022-10-28T09:49:20.953Z,1015.32
2022-10-28T09:50:20.975Z,1015.30
2022-10-28T09:51:20.991Z,1015.30
2022-10-28T09:52:21.013Z,1015.25
2022-10-28T09:53:21.035Z,1015.36
2022-10-28T09:54:21.055Z,1015.33
2022-10-28T09:55:21.084Z,1015.34
2022-10-28T09:56:21.101Z,1015.31
2022-10-28T09:57:21.118Z,1015.28
2022-10-28T09:58:21.146Z,1015.27
2022-10-28T09:59:21.173Z,1015.24
2022-10-28T10:00:21.180Z,1015.21
2022-10-28T10:01:21.238Z,1015.18
2022-10-28T10:02:21.261Z,1015.14
2022-10-28T10:03:21.243Z,1015.16
2022-10-28T10:04:21.268Z,1015.14
2022-10-28T10:05:21.288Z,1015.13
2022-10-28T10:06:21.316Z,1015.14
2022-10-28T10:07:21.330Z,1015.10
2022-10-28T10:08:21.351Z,1015.10
2022-10-28T10:09:21.378Z,1015.12
2022-10-28T10:10:21.399Z,1015.10
2022-10-28T10:11:21.420Z,1015.13
2022-10-28T10:12:21.438Z,1015.11
2022-10-28T10:13:21.460Z,1015.11
2022-10-28T10:14:21.491Z,1015.07
2022-10-28T10:15:21.505Z,1015.04
2022-10-28T10:16:21.527Z,1015.06
2022-10-28T10:17:21.547Z,1015.00
2022-10-28T10:18:21.574Z,1014.99
2022-10-28T10:19:21.593Z,1015.00
2022-10-28T10:20:21.615Z,1014.94
2022-10-28T10:21:21.637Z,1015.01
2022-10-28T10:22:21.659Z,1014.97
2022-10-28T10:23:21.681Z,1014.99
2022-10-28T10:24:21.702Z,1015.03
2022-10-28T10:25:21.725Z,1014.97
2022-10-28T10:26:21.744Z,1014.95
2022-10-28T10:27:21.768Z,1014.97
2022-10-28T10:28:21.788Z,1014.94
2022-10-28T10:29:21.810Z,1014.95
2022-10-28T10:30:21.834Z,1014.90
2022-10-28T10:31:21.854Z,1014.90
2022-10-28T10:32:21.873Z,1014.89
2022-10-28T10:33:21.897Z,1014.91
2022-10-28T10:34:21.920Z,1014.86
2022-10-28T10:35:21.940Z,1014.85
2022-10-28T10:36:21.962Z,1014.88
2022-10-28T10:37:21.986Z,1014.84
2022-10-28T10:38:22.007Z,1014.80
2022-10-28T10:39:22.032Z,1014.83
2022-10-28T10:40:22.050Z,1014.77
2022-10-28T10:41:22.073Z,1014.78
2022-10-28T10:42:22.093Z,1014.75
2022-10-28T10:43:22.116Z,1014.74
2022-10-28T10:44:22.263Z,1014.70
2022-10-28T10:45:22.169Z,1014.71
2022-10-28T10:46:22.182Z,1014.72
2022-10-28T10:47:22.206Z,1014.71
2022-10-28T10:48:22.223Z,1014.67
2022-10-28T10:49:22.245Z,1014.69
2022-10-28T10:50:22.312Z,1014.67
2022-10-28T10:51:22.290Z,1014.66
2022-10-28T10:52:22.335Z,1014.67
2022-10-28T10:53:22.331Z,1014.64
2022-10-28T10:54:22.357Z,1014.61
2022-10-28T10:55:22.377Z,1014.63
2022-10-28T10:56:22.396Z,1014.59
2022-10-28T10:57:22.420Z,1014.58
2022-10-28T10:58:22.440Z,1014.54
2022-10-28T10:59:22.463Z,1014.52
2022-10-28T11:00:22.482Z,1014.54
2022-10-28T11:01:22.641Z,1014.52
2022-10-28T11:02:22.761Z,1014.52
2022-10-28T11:03:22.551Z,1014.55
2022-10-28T11:04:22.576Z,1014.54
2022-10-28T11:05:25.757Z,1014.52
2022-10-28T11:06:24.018Z,1014.46
2022-10-28T11:07:22.643Z,1014.46
2022-10-28T11:08:22.657Z,1014.43
2022-10-28T11:09:22.681Z,1014.41
2022-10-28T11:10:22.701Z,1014.49
2022-10-28T11:11:22.725Z,1014.46
2022-10-28T11:12:22.745Z,1014.46
2022-10-28T11:13:22.767Z,1014.54
2022-10-28T11:14:22.791Z,1014.51
2022-10-28T11:15:22.813Z,1014.49
2022-10-28T11:16:22.834Z,1014.47
2022-10-28T11:17:22.894Z,1014.47
2022-10-28T11:18:22.878Z,1014.44
2022-10-28T11:19:22.899Z,1014.45
2022-10-28T11:20:22.920Z,1014.47
2022-10-28T11:22:22.962Z,1014.44
2022-10-28T11:23:22.987Z,1014.43
2022-10-28T11:24:23.012Z,1014.42
2022-10-28T11:25:23.047Z,1014.45
2022-10-28T11:26:23.051Z,1014.39
2022-10-28T11:27:23.078Z,1014.37
2022-10-28T11:28:23.107Z,1014.39
2022-10-28T11:29:23.118Z,1014.38
2022-10-28T11:30:23.144Z,1014.41
2022-10-28T11:31:23.161Z,1014.46
2022-10-28T11:32:23.183Z,1014.47
2022-10-28T11:33:29.945Z,1014.41
2022-10-28T11:34:23.228Z,1014.41
2022-10-28T11:35:23.249Z,1014.42
2022-10-28T11:36:24.325Z,1014.41
2022-10-28T11:37:23.293Z,1014.39
2022-10-28T11:38:23.318Z,1014.39
2022-10-28T11:39:23.337Z,1014.34
2022-10-28T11:40:23.361Z,1014.37
2022-10-28T11:41:23.380Z,1014.33
2022-10-28T11:42:23.404Z,1014.32
2022-10-28T11:43:23.426Z,1014.26
2022-10-28T11:44:23.451Z,1014.27
2022-10-28T11:45:23.470Z,1014.23
2022-10-28T11:46:23.499Z,1014.27
2022-10-28T11:47:23.517Z,1014.24
2022-10-28T11:48:23.541Z,1014.21
2022-10-28T11:49:23.586Z,1014.20
2022-10-28T11:50:23.584Z,1014.17
2022-10-28T11:51:23.611Z,1014.17
2022-10-28T11:52:23.628Z,1014.18
2022-10-28T11:53:23.652Z,1014.21
2022-10-28T11:54:23.673Z,1014.23
2022-10-28T11:55:23.698Z,1014.23
2022-10-28T11:56:23.716Z,1014.24
2022-10-28T11:57:23.739Z,1014.27
2022-10-28T11:58:23.767Z,1014.24
2022-10-28T11:59:23.785Z,1014.25
2022-10-28T12:00:23.805Z,1014.30
2022-10-28T12:01:23.925Z,1014.26
2022-10-28T12:02:24.004Z,1014.26
2022-10-28T12:03:23.930Z,1014.25
2022-10-28T12:04:23.898Z,1014.23
2022-10-28T12:05:23.920Z,1014.26
2022-10-28T12:06:23.941Z,1014.25
2022-10-28T12:07:23.963Z,1014.25
2022-10-28T12:08:23.991Z,1014.27
2022-10-28T12:09:24.012Z,1014.28
2022-10-28T12:10:24.032Z,1014.27